sensor_id;sensor_type;location;lat;lon;timestamp;P1;durP1;ratioP1;P2;durP2;ratioP2
7495;SDS011;3789;47.064;15.482;2023-07-31T00:01:09;4.97;;;2.70;;
7495;SDS011;3789;47.064;15.482;2023-07-31T00:03:40;2.95;;;2.40;;
7495;SDS011;3789;47.064;15.482;2023-07-31T00:09:07;2.75;;;2.33;;
7495;SDS011;3789;47.064;15.482;2023-07-31T00:11:39;3.38;;;2.50;;
7495;SDS011;3789;47.064;15.482;2023-07-31T00:14:07;2.70;;;2.50;;
7495;SDS011;3789;47.064;15.482;2023-07-31T00:16:37;5.28;;;2.35;;
7495;SDS011;3789;47.064;15.482;2023-07-31T00:19:06;3.22;;;2.92;;
7495;SDS011;3789;47.064;15.482;2023-07-31T00:21:35;3.78;;;2.63;;
7495;SDS011;3789;47.064;15.482;2023-07-31T00:24:05;3.40;;;3.03;;
7495;SDS011;3789;47.064;15.482;2023-07-31T00:26:36;8.25;;;2.90;;
7495;SDS011;3789;47.064;15.482;2023-07-31T00:29:12;4.50;;;2.70;;
7495;SDS011;3789;47.064;15.482;2023-07-31T00:31:39;3.13;;;2.53;;
7495;SDS011;3789;47.064;15.482;2023-07-31T00:34:09;2.50;;;2.20;;
7495;SDS011;3789;47.064;15.482;2023-07-31T00:36:39;3.28;;;2.50;;
7495;SDS011;3789;47.064;15.482;2023-07-31T00:39:10;4.07;;;2.38;;
7495;SDS011;3789;47.064;15.482;2023-07-31T00:41:41;3.25;;;2.38;;
7495;SDS011;3789;47.064;15.482;2023-07-31T00:44:10;2.40;;;2.20;;
7495;SDS011;3789;47.064;15.482;2023-07-31T00:46:41;3.05;;;2.40;;
7495;SDS011;3789;47.064;15.482;2023-07-31T00:49:11;3.03;;;2.25;;
7495;SDS011;3789;47.064;15.482;2023-07-31T00:51:40;2.65;;;2.38;;
7495;SDS011;3789;47.064;15.482;2023-07-31T00:54:19;2.55;;;2.35;;
7495;SDS011;3789;47.064;15.482;2023-07-31T00:56:48;2.50;;;2.30;;
7495;SDS011;3789;47.064;15.482;2023-07-31T00:59:22;2.10;;;1.98;;
7495;SDS011;3789;47.064;15.482;2023-07-31T01:01:59;2.85;;;2.47;;
7495;SDS011;3789;47.064;15.482;2023-07-31T01:04:34;3.38;;;2.60;;
7495;SDS011;3789;47.064;15.482;2023-07-31T01:10:34;4.63;;;2.70;;
7495;SDS011;3789;47.064;15.482;2023-07-31T01:13:20;3.25;;;2.55;;
7495;SDS011;3789;47.064;15.482;2023-07-31T01:15:53;3.00;;;2.70;;
7495;SDS011;3789;47.064;15.482;2023-07-31T01:18:29;3.13;;;2.83;;
7495;SDS011;3789;47.064;15.482;2023-07-31T01:21:03;3.63;;;2.85;;
7495;SDS011;3789;47.064;15.482;2023-07-31T01:27:41;3.00;;;2.78;;
7495;SDS011;3789;47.064;15.482;2023-07-31T01:30:52;3.40;;;2.67;;
7495;SDS011;3789;47.064;15.482;2023-07-31T01:33:24;4.60;;;3.40;;
7495;SDS011;3789;47.064;15.482;2023-07-31T01:35:54;3.80;;;3.40;;
7495;SDS011;3789;47.064;15.482;2023-07-31T01:38:33;4.47;;;3.15;;
7495;SDS011;3789;47.064;15.482;2023-07-31T01:41:11;4.32;;;3.15;;
7495;SDS011;3789;47.064;15.482;2023-07-31T01:43:50;9.75;;;3.60;;
7495;SDS011;3789;47.064;15.482;2023-07-31T01:46:21;3.13;;;2.83;;
7495;SDS011;3789;47.064;15.482;2023-07-31T01:48:52;4.18;;;2.97;;
7495;SDS011;3789;47.064;15.482;2023-07-31T01:51:22;3.63;;;3.00;;
7495;SDS011;3789;47.064;15.482;2023-07-31T01:53:52;3.88;;;2.72;;
7495;SDS011;3789;47.064;15.482;2023-07-31T01:56:32;3.08;;;2.78;;
7495;SDS011;3789;47.064;15.482;2023-07-31T01:59:01;4.35;;;2.92;;
7495;SDS011;3789;47.064;15.482;2023-07-31T02:01:37;2.72;;;2.53;;
7495;SDS011;3789;47.064;15.482;2023-07-31T02:04:08;2.88;;;2.40;;
7495;SDS011;3789;47.064;15.482;2023-07-31T02:06:37;3.80;;;2.67;;
7495;SDS011;3789;47.064;15.482;2023-07-31T02:09:08;4.05;;;2.67;;
7495;SDS011;3789;47.064;15.482;2023-07-31T02:11:38;4.10;;;2.63;;
7495;SDS011;3789;47.064;15.482;2023-07-31T02:14:15;2.83;;;2.53;;
7495;SDS011;3789;47.064;15.482;2023-07-31T02:16:45;3.60;;;2.78;;
7495;SDS011;3789;47.064;15.482;2023-07-31T02:19:14;3.55;;;3.25;;
7495;SDS011;3789;47.064;15.482;2023-07-31T02:21:42;3.60;;;3.25;;
7495;SDS011;3789;47.064;15.482;2023-07-31T02:24:13;4.30;;;3.17;;
7495;SDS011;3789;47.064;15.482;2023-07-31T02:26:44;3.38;;;3.03;;
7495;SDS011;3789;47.064;15.482;2023-07-31T02:29:12;3.72;;;3.30;;
7495;SDS011;3789;47.064;15.482;2023-07-31T02:31:51;3.63;;;3.30;;
7495;SDS011;3789;47.064;15.482;2023-07-31T02:34:20;4.20;;;3.50;;
7495;SDS011;3789;47.064;15.482;2023-07-31T02:36:51;4.97;;;3.30;;
7495;SDS011;3789;47.064;15.482;2023-07-31T02:39:19;5.25;;;3.85;;
7495;SDS011;3789;47.064;15.482;2023-07-31T02:41:52;4.00;;;3.58;;
7495;SDS011;3789;47.064;15.482;2023-07-31T02:44:28;3.90;;;3.60;;
7495;SDS011;3789;47.064;15.482;2023-07-31T02:46:56;6.43;;;4.30;;
7495;SDS011;3789;47.064;15.482;2023-07-31T02:49:27;4.10;;;3.70;;
7495;SDS011;3789;47.064;15.482;2023-07-31T02:51:56;4.53;;;3.28;;
7495;SDS011;3789;47.064;15.482;2023-07-31T02:54:25;5.15;;;3.78;;
7495;SDS011;3789;47.064;15.482;2023-07-31T02:56:55;4.15;;;3.40;;
7495;SDS011;3789;47.064;15.482;2023-07-31T02:59:25;4.30;;;3.20;;
7495;SDS011;3789;47.064;15.482;2023-07-31T03:01:57;4.63;;;2.83;;
7495;SDS011;3789;47.064;15.482;2023-07-31T03:04:26;4.68;;;3.00;;
7495;SDS011;3789;47.064;15.482;2023-07-31T03:07:03;3.08;;;2.78;;
7495;SDS011;3789;47.064;15.482;2023-07-31T03:09:34;4.03;;;3.03;;
7495;SDS011;3789;47.064;15.482;2023-07-31T03:12:03;3.40;;;3.05;;
7495;SDS011;3789;47.064;15.482;2023-07-31T03:14:36;3.50;;;2.90;;
7495;SDS011;3789;47.064;15.482;2023-07-31T03:17:06;3.95;;;3.00;;
7495;SDS011;3789;47.064;15.482;2023-07-31T03:19:35;6.45;;;3.13;;
7495;SDS011;3789;47.064;15.482;2023-07-31T03:22:12;4.47;;;3.33;;
7495;SDS011;3789;47.064;15.482;2023-07-31T03:24:40;3.75;;;3.13;;
7495;SDS011;3789;47.064;15.482;2023-07-31T03:27:09;3.42;;;2.92;;
7495;SDS011;3789;47.064;15.482;2023-07-31T03:29:38;3.45;;;3.13;;
7495;SDS011;3789;47.064;15.482;2023-07-31T03:32:18;6.00;;;2.92;;
7495;SDS011;3789;47.064;15.482;2023-07-31T03:34:46;4.00;;;3.20;;
7495;SDS011;3789;47.064;15.482;2023-07-31T03:37:15;3.80;;;3.23;;
7495;SDS011;3789;47.064;15.482;2023-07-31T03:39:42;4.10;;;3.10;;
7495;SDS011;3789;47.064;15.482;2023-07-31T03:42:11;5.00;;;3.20;;
7495;SDS011;3789;47.064;15.482;2023-07-31T03:44:43;3.85;;;2.85;;
7495;SDS011;3789;47.064;15.482;2023-07-31T03:47:14;3.40;;;2.90;;
7495;SDS011;3789;47.064;15.482;2023-07-31T03:49:52;4.78;;;2.78;;
7495;SDS011;3789;47.064;15.482;2023-07-31T03:52:27;3.20;;;2.90;;
7495;SDS011;3789;47.064;15.482;2023-07-31T03:54:56;3.13;;;2.83;;
7495;SDS011;3789;47.064;15.482;2023-07-31T03:57:26;3.50;;;3.17;;
7495;SDS011;3789;47.064;15.482;2023-07-31T03:59:53;3.10;;;2.72;;
7495;SDS011;3789;47.064;15.482;2023-07-31T04:02:25;3.60;;;3.15;;
7495;SDS011;3789;47.064;15.482;2023-07-31T04:05:01;5.18;;;2.92;;
7495;SDS011;3789;47.064;15.482;2023-07-31T04:07:33;4.25;;;3.20;;
7495;SDS011;3789;47.064;15.482;2023-07-31T04:10:02;5.53;;;3.05;;
7495;SDS011;3789;47.064;15.482;2023-07-31T04:12:37;4.63;;;3.35;;
7495;SDS011;3789;47.064;15.482;2023-07-31T04:15:07;3.60;;;2.97;;
7495;SDS011;3789;47.064;15.482;2023-07-31T04:17:38;3.58;;;2.80;;
7495;SDS011;3789;47.064;15.482;2023-07-31T04:20:07;3.25;;;2.72;;
7495;SDS011;3789;47.064;15.482;2023-07-31T04:22:36;3.13;;;2.70;;
7495;SDS011;3789;47.064;15.482;2023-07-31T04:25:15;4.95;;;3.00;;
7495;SDS011;3789;47.064;15.482;2023-07-31T04:27:54;3.55;;;2.60;;
7495;SDS011;3789;47.064;15.482;2023-07-31T04:30:23;4.45;;;3.00;;
7495;SDS011;3789;47.064;15.482;2023-07-31T04:32:53;3.20;;;2.80;;
7495;SDS011;3789;47.064;15.482;2023-07-31T04:35:31;5.60;;;3.40;;
7495;SDS011;3789;47.064;15.482;2023-07-31T04:38:01;5.00;;;3.20;;
7495;SDS011;3789;47.064;15.482;2023-07-31T04:40:30;3.60;;;3.30;;
7495;SDS011;3789;47.064;15.482;2023-07-31T04:43:02;4.28;;;2.60;;
7495;SDS011;3789;47.064;15.482;2023-07-31T04:45:32;3.25;;;2.95;;
7495;SDS011;3789;47.064;15.482;2023-07-31T04:48:03;3.80;;;2.75;;
7495;SDS011;3789;47.064;15.482;2023-07-31T04:50:32;4.30;;;2.70;;
7495;SDS011;3789;47.064;15.482;2023-07-31T04:53:00;3.35;;;2.80;;
7495;SDS011;3789;47.064;15.482;2023-07-31T04:55:31;5.35;;;3.13;;
7495;SDS011;3789;47.064;15.482;2023-07-31T04:58:08;3.55;;;2.80;;
7495;SDS011;3789;47.064;15.482;2023-07-31T05:00:50;11.27;;;3.20;;
7495;SDS011;3789;47.064;15.482;2023-07-31T05:03:20;5.93;;;3.00;;
7495;SDS011;3789;47.064;15.482;2023-07-31T05:05:56;5.97;;;2.70;;
7495;SDS011;3789;47.064;15.482;2023-07-31T05:08:33;7.28;;;3.17;;
7495;SDS011;3789;47.064;15.482;2023-07-31T05:11:02;4.28;;;2.70;;
7495;SDS011;3789;47.064;15.482;2023-07-31T05:13:33;3.65;;;2.53;;
7495;SDS011;3789;47.064;15.482;2023-07-31T05:16:04;3.47;;;3.03;;
7495;SDS011;3789;47.064;15.482;2023-07-31T05:18:33;3.72;;;2.90;;
7495;SDS011;3789;47.064;15.482;2023-07-31T05:21:04;7.53;;;2.97;;
7495;SDS011;3789;47.064;15.482;2023-07-31T05:23:35;3.20;;;2.90;;
7495;SDS011;3789;47.064;15.482;2023-07-31T05:26:08;3.70;;;2.65;;
7495;SDS011;3789;47.064;15.482;2023-07-31T05:28:48;3.17;;;2.80;;
7495;SDS011;3789;47.064;15.482;2023-07-31T05:31:18;5.95;;;3.28;;
7495;SDS011;3789;47.064;15.482;2023-07-31T05:33:48;3.80;;;2.85;;
7495;SDS011;3789;47.064;15.482;2023-07-31T05:36:20;5.95;;;2.92;;
7495;SDS011;3789;47.064;15.482;2023-07-31T05:38:50;7.38;;;2.88;;
7495;SDS011;3789;47.064;15.482;2023-07-31T05:41:21;4.70;;;2.78;;
7495;SDS011;3789;47.064;15.482;2023-07-31T05:43:54;5.68;;;2.85;;
7495;SDS011;3789;47.064;15.482;2023-07-31T05:46:32;3.00;;;2.70;;
7495;SDS011;3789;47.064;15.482;2023-07-31T05:49:02;4.88;;;2.95;;
7495;SDS011;3789;47.064;15.482;2023-07-31T05:51:30;3.80;;;2.88;;
7495;SDS011;3789;47.064;15.482;2023-07-31T05:53:59;4.28;;;2.95;;
7495;SDS011;3789;47.064;15.482;2023-07-31T05:56:27;3.67;;;3.08;;
7495;SDS011;3789;47.064;15.482;2023-07-31T05:58:57;5.40;;;3.08;;
7495;SDS011;3789;47.064;15.482;2023-07-31T06:01:33;4.78;;;3.20;;
7495;SDS011;3789;47.064;15.482;2023-07-31T06:04:05;4.07;;;3.22;;
7495;SDS011;3789;47.064;15.482;2023-07-31T06:06:47;5.00;;;3.38;;
7495;SDS011;3789;47.064;15.482;2023-07-31T06:09:29;4.95;;;3.17;;
7495;SDS011;3789;47.064;15.482;2023-07-31T06:12:08;4.65;;;3.38;;
7495;SDS011;3789;47.064;15.482;2023-07-31T06:14:39;4.50;;;3.15;;
7495;SDS011;3789;47.064;15.482;2023-07-31T06:17:08;5.13;;;3.20;;
7495;SDS011;3789;47.064;15.482;2023-07-31T06:19:37;5.80;;;2.97;;
7495;SDS011;3789;47.064;15.482;2023-07-31T06:22:05;3.67;;;2.67;;
7495;SDS011;3789;47.064;15.482;2023-07-31T06:24:36;3.80;;;3.25;;
7495;SDS011;3789;47.064;15.482;2023-07-31T06:27:14;4.10;;;2.80;;
7495;SDS011;3789;47.064;15.482;2023-07-31T06:29:52;4.72;;;3.20;;
7495;SDS011;3789;47.064;15.482;2023-07-31T06:32:22;2.88;;;2.60;;
7495;SDS011;3789;47.064;15.482;2023-07-31T06:34:52;4.60;;;2.88;;
7495;SDS011;3789;47.064;15.482;2023-07-31T06:37:27;3.08;;;2.58;;
7495;SDS011;3789;47.064;15.482;2023-07-31T06:39:56;3.92;;;2.72;;
7495;SDS011;3789;47.064;15.482;2023-07-31T06:42:26;3.20;;;2.67;;
7495;SDS011;3789;47.064;15.482;2023-07-31T06:44:57;5.80;;;2.78;;
7495;SDS011;3789;47.064;15.482;2023-07-31T06:47:32;2.63;;;2.42;;
7495;SDS011;3789;47.064;15.482;2023-07-31T06:50:01;3.53;;;2.50;;
7495;SDS011;3789;47.064;15.482;2023-07-31T06:52:33;3.53;;;2.55;;
7495;SDS011;3789;47.064;15.482;2023-07-31T06:55:08;3.13;;;2.80;;
7495;SDS011;3789;47.064;15.482;2023-07-31T06:58:01;5.10;;;2.72;;
7495;SDS011;3789;47.064;15.482;2023-07-31T07:00:30;3.28;;;2.53;;
7495;SDS011;3789;47.064;15.482;2023-07-31T07:03:01;4.05;;;2.83;;
7495;SDS011;3789;47.064;15.482;2023-07-31T07:05:32;3.00;;;2.70;;
7495;SDS011;3789;47.064;15.482;2023-07-31T07:08:02;4.50;;;2.70;;
7495;SDS011;3789;47.064;15.482;2023-07-31T07:10:39;4.40;;;3.05;;
7495;SDS011;3789;47.064;15.482;2023-07-31T07:13:21;4.65;;;2.58;;
7495;SDS011;3789;47.064;15.482;2023-07-31T07:15:52;4.25;;;2.47;;
7495;SDS011;3789;47.064;15.482;2023-07-31T07:18:22;3.17;;;2.83;;
7495;SDS011;3789;47.064;15.482;2023-07-31T07:20:50;3.72;;;2.50;;
7495;SDS011;3789;47.064;15.482;2023-07-31T07:23:20;4.28;;;2.80;;
7495;SDS011;3789;47.064;15.482;2023-07-31T07:25:52;3.00;;;2.70;;
7495;SDS011;3789;47.064;15.482;2023-07-31T07:28:22;4.78;;;2.80;;
7495;SDS011;3789;47.064;15.482;2023-07-31T07:30:53;3.63;;;2.60;;
7495;SDS011;3789;47.064;15.482;2023-07-31T07:33:24;3.05;;;2.75;;
7495;SDS011;3789;47.064;15.482;2023-07-31T07:35:53;3.83;;;2.92;;
7495;SDS011;3789;47.064;15.482;2023-07-31T07:38:22;2.88;;;2.58;;
7495;SDS011;3789;47.064;15.482;2023-07-31T07:40:54;3.17;;;2.53;;
7495;SDS011;3789;47.064;15.482;2023-07-31T07:43:25;2.95;;;2.40;;
7495;SDS011;3789;47.064;15.482;2023-07-31T07:45:52;2.83;;;2.50;;
7495;SDS011;3789;47.064;15.482;2023-07-31T07:48:21;2.80;;;2.42;;
7495;SDS011;3789;47.064;15.482;2023-07-31T07:50:50;2.63;;;2.42;;
7495;SDS011;3789;47.064;15.482;2023-07-31T07:53:19;3.33;;;2.60;;
7495;SDS011;3789;47.064;15.482;2023-07-31T07:55:49;2.95;;;2.65;;
7495;SDS011;3789;47.064;15.482;2023-07-31T07:58:20;3.92;;;2.45;;
7495;SDS011;3789;47.064;15.482;2023-07-31T08:01:00;3.08;;;2.17;;
7495;SDS011;3789;47.064;15.482;2023-07-31T08:03:35;2.88;;;2.53;;
7495;SDS011;3789;47.064;15.482;2023-07-31T08:06:05;2.83;;;2.63;;
7495;SDS011;3789;47.064;15.482;2023-07-31T08:08:37;2.47;;;2.28;;
7495;SDS011;3789;47.064;15.482;2023-07-31T08:11:07;2.88;;;2.45;;
7495;SDS011;3789;47.064;15.482;2023-07-31T08:13:38;3.25;;;2.40;;
7495;SDS011;3789;47.064;15.482;2023-07-31T08:16:08;2.72;;;2.50;;
7495;SDS011;3789;47.064;15.482;2023-07-31T08:18:37;3.38;;;3.00;;
7495;SDS011;3789;47.064;15.482;2023-07-31T08:21:14;2.97;;;2.55;;
7495;SDS011;3789;47.064;15.482;2023-07-31T08:23:47;3.22;;;2.60;;
7495;SDS011;3789;47.064;15.482;2023-07-31T08:26:17;2.78;;;2.40;;
7495;SDS011;3789;47.064;15.482;2023-07-31T08:28:48;2.80;;;2.38;;
7495;SDS011;3789;47.064;15.482;2023-07-31T08:31:18;3.67;;;2.72;;
7495;SDS011;3789;47.064;15.482;2023-07-31T08:33:48;2.60;;;2.40;;
7495;SDS011;3789;47.064;15.482;2023-07-31T08:36:18;2.60;;;2.28;;
7495;SDS011;3789;47.064;15.482;2023-07-31T08:38:48;2.58;;;2.38;;
7495;SDS011;3789;47.064;15.482;2023-07-31T08:41:18;2.67;;;2.47;;
7495;SDS011;3789;47.064;15.482;2023-07-31T08:43:46;2.90;;;2.38;;
7495;SDS011;3789;47.064;15.482;2023-07-31T08:46:24;3.22;;;2.92;;
7495;SDS011;3789;47.064;15.482;2023-07-31T08:48:58;2.78;;;2.15;;
7495;SDS011;3789;47.064;15.482;2023-07-31T08:51:26;2.58;;;2.38;;
7495;SDS011;3789;47.064;15.482;2023-07-31T08:53:56;3.92;;;2.63;;
7495;SDS011;3789;47.064;15.482;2023-07-31T08:56:26;3.45;;;2.50;;
7495;SDS011;3789;47.064;15.482;2023-07-31T08:59:07;2.70;;;2.50;;
7495;SDS011;3789;47.064;15.482;2023-07-31T09:01:39;3.28;;;2.70;;
7495;SDS011;3789;47.064;15.482;2023-07-31T09:04:17;2.65;;;2.40;;
7495;SDS011;3789;47.064;15.482;2023-07-31T09:06:48;3.22;;;2.40;;
7495;SDS011;3789;47.064;15.482;2023-07-31T09:09:44;3.65;;;2.28;;
7495;SDS011;3789;47.064;15.482;2023-07-31T09:12:16;2.67;;;2.47;;
7495;SDS011;3789;47.064;15.482;2023-07-31T09:14:49;2.53;;;2.20;;
7495;SDS011;3789;47.064;15.482;2023-07-31T09:17:30;2.67;;;2.45;;
7495;SDS011;3789;47.064;15.482;2023-07-31T09:22:54;3.85;;;2.50;;
7495;SDS011;3789;47.064;15.482;2023-07-31T09:25:23;2.90;;;2.60;;
7495;SDS011;3789;47.064;15.482;2023-07-31T09:28:01;2.92;;;2.05;;
7495;SDS011;3789;47.064;15.482;2023-07-31T09:30:49;2.40;;;2.20;;
7495;SDS011;3789;47.064;15.482;2023-07-31T09:33:19;5.65;;;2.42;;
7495;SDS011;3789;47.064;15.482;2023-07-31T09:35:58;2.53;;;2.33;;
7495;SDS011;3789;47.064;15.482;2023-07-31T09:38:31;2.50;;;2.00;;
7495;SDS011;3789;47.064;15.482;2023-07-31T09:41:01;3.78;;;2.30;;
7495;SDS011;3789;47.064;15.482;2023-07-31T09:43:45;3.50;;;2.40;;
7495;SDS011;3789;47.064;15.482;2023-07-31T09:46:26;3.03;;;2.35;;
7495;SDS011;3789;47.064;15.482;2023-07-31T09:49:13;3.20;;;2.88;;
7495;SDS011;3789;47.064;15.482;2023-07-31T09:51:43;3.00;;;2.70;;
7495;SDS011;3789;47.064;15.482;2023-07-31T09:54:13;2.70;;;2.45;;
7495;SDS011;3789;47.064;15.482;2023-07-31T09:56:48;2.80;;;2.45;;
7495;SDS011;3789;47.064;15.482;2023-07-31T09:59:39;3.40;;;2.67;;
7495;SDS011;3789;47.064;15.482;2023-07-31T10:02:09;2.60;;;2.38;;
7495;SDS011;3789;47.064;15.482;2023-07-31T10:04:49;2.78;;;2.58;;
7495;SDS011;3789;47.064;15.482;2023-07-31T10:07:18;2.40;;;2.20;;
7495;SDS011;3789;47.064;15.482;2023-07-31T10:09:51;2.65;;;2.45;;
7495;SDS011;3789;47.064;15.482;2023-07-31T10:12:42;2.35;;;2.15;;
7495;SDS011;3789;47.064;15.482;2023-07-31T10:15:13;2.90;;;2.35;;
7495;SDS011;3789;47.064;15.482;2023-07-31T10:17:47;2.72;;;2.50;;
7495;SDS011;3789;47.064;15.482;2023-07-31T10:20:17;3.50;;;2.50;;
7495;SDS011;3789;47.064;15.482;2023-07-31T10:22:54;2.40;;;2.20;;
7495;SDS011;3789;47.064;15.482;2023-07-31T10:25:27;3.13;;;2.22;;
7495;SDS011;3789;47.064;15.482;2023-07-31T10:27:58;2.55;;;2.35;;
7495;SDS011;3789;47.064;15.482;2023-07-31T10:30:28;3.75;;;2.65;;
7495;SDS011;3789;47.064;15.482;2023-07-31T10:33:04;3.00;;;2.67;;
7495;SDS011;3789;47.064;15.482;2023-07-31T10:35:34;2.88;;;2.63;;
7495;SDS011;3789;47.064;15.482;2023-07-31T10:38:12;3.10;;;2.25;;
7495;SDS011;3789;47.064;15.482;2023-07-31T10:40:41;2.60;;;2.35;;
7495;SDS011;3789;47.064;15.482;2023-07-31T10:43:27;2.47;;;2.20;;
7495;SDS011;3789;47.064;15.482;2023-07-31T10:45:57;3.15;;;2.70;;
7495;SDS011;3789;47.064;15.482;2023-07-31T10:48:25;2.65;;;2.30;;
7495;SDS011;3789;47.064;15.482;2023-07-31T10:51:08;2.92;;;2.55;;
7495;SDS011;3789;47.064;15.482;2023-07-31T10:53:43;2.80;;;2.58;;
7495;SDS011;3789;47.064;15.482;2023-07-31T10:56:21;2.95;;;2.70;;
7495;SDS011;3789;47.064;15.482;2023-07-31T10:59:02;2.67;;;2.47;;
7495;SDS011;3789;47.064;15.482;2023-07-31T11:04:29;2.95;;;2.63;;
7495;SDS011;3789;47.064;15.482;2023-07-31T11:07:01;3.67;;;2.35;;
7495;SDS011;3789;47.064;15.482;2023-07-31T11:09:33;3.10;;;2.38;;
7495;SDS011;3789;47.064;15.482;2023-07-31T11:12:02;2.95;;;2.28;;
7495;SDS011;3789;47.064;15.482;2023-07-31T11:14:32;3.55;;;2.45;;
7495;SDS011;3789;47.064;15.482;2023-07-31T11:17:06;4.05;;;2.50;;
7495;SDS011;3789;47.064;15.482;2023-07-31T11:19:36;3.45;;;2.63;;
7495;SDS011;3789;47.064;15.482;2023-07-31T11:22:07;2.95;;;2.40;;
7495;SDS011;3789;47.064;15.482;2023-07-31T11:24:37;2.60;;;2.40;;
7495;SDS011;3789;47.064;15.482;2023-07-31T11:27:07;2.97;;;2.67;;
7495;SDS011;3789;47.064;15.482;2023-07-31T11:29:44;2.65;;;2.45;;
7495;SDS011;3789;47.064;15.482;2023-07-31T11:32:17;2.75;;;2.55;;
7495;SDS011;3789;47.064;15.482;2023-07-31T11:34:54;2.35;;;2.15;;
7495;SDS011;3789;47.064;15.482;2023-07-31T11:37:44;2.60;;;2.40;;
7495;SDS011;3789;47.064;15.482;2023-07-31T11:40:21;2.55;;;2.35;;
7495;SDS011;3789;47.064;15.482;2023-07-31T11:43:04;2.75;;;2.55;;
7495;SDS011;3789;47.064;15.482;2023-07-31T11:45:33;2.35;;;2.15;;
7495;SDS011;3789;47.064;15.482;2023-07-31T11:48:01;2.72;;;2.45;;
7495;SDS011;3789;47.064;15.482;2023-07-31T11:50:38;3.10;;;2.50;;
7495;SDS011;3789;47.064;15.482;2023-07-31T11:53:07;2.40;;;2.20;;
7495;SDS011;3789;47.064;15.482;2023-07-31T11:55:37;2.75;;;2.55;;
7495;SDS011;3789;47.064;15.482;2023-07-31T11:58:06;3.15;;;2.60;;
7495;SDS011;3789;47.064;15.482;2023-07-31T12:00:37;2.88;;;2.65;;
7495;SDS011;3789;47.064;15.482;2023-07-31T12:03:07;3.47;;;2.63;;
7495;SDS011;3789;47.064;15.482;2023-07-31T12:05:37;2.83;;;2.40;;
7495;SDS011;3789;47.064;15.482;2023-07-31T12:08:27;5.45;;;2.58;;
7495;SDS011;3789;47.064;15.482;2023-07-31T12:11:08;3.15;;;2.53;;
7495;SDS011;3789;47.064;15.482;2023-07-31T12:13:39;3.17;;;2.70;;
7495;SDS011;3789;47.064;15.482;2023-07-31T12:16:12;2.75;;;2.40;;
7495;SDS011;3789;47.064;15.482;2023-07-31T12:18:41;3.25;;;2.72;;
7495;SDS011;3789;47.064;15.482;2023-07-31T12:21:12;2.95;;;2.65;;
7495;SDS011;3789;47.064;15.482;2023-07-31T12:23:40;2.70;;;2.50;;
7495;SDS011;3789;47.064;15.482;2023-07-31T12:26:14;2.88;;;2.40;;
7495;SDS011;3789;47.064;15.482;2023-07-31T12:28:54;4.70;;;2.95;;
7495;SDS011;3789;47.064;15.482;2023-07-31T12:31:27;3.47;;;3.05;;
7495;SDS011;3789;47.064;15.482;2023-07-31T12:34:13;3.22;;;2.67;;
7495;SDS011;3789;47.064;15.482;2023-07-31T12:36:54;3.10;;;2.80;;
7495;SDS011;3789;47.064;15.482;2023-07-31T12:39:23;4.35;;;2.50;;
7495;SDS011;3789;47.064;15.482;2023-07-31T12:42:01;2.97;;;2.67;;
7495;SDS011;3789;47.064;15.482;2023-07-31T12:44:30;3.42;;;3.05;;
7495;SDS011;3789;47.064;15.482;2023-07-31T12:47:03;4.80;;;4.05;;
7495;SDS011;3789;47.064;15.482;2023-07-31T12:49:38;3.53;;;2.60;;
7495;SDS011;3789;47.064;15.482;2023-07-31T12:52:09;3.00;;;2.70;;
7495;SDS011;3789;47.064;15.482;2023-07-31T12:54:38;2.95;;;2.70;;
7495;SDS011;3789;47.064;15.482;2023-07-31T12:57:13;3.10;;;2.80;;
7495;SDS011;3789;47.064;15.482;2023-07-31T12:59:43;3.28;;;2.63;;
7495;SDS011;3789;47.064;15.482;2023-07-31T13:02:11;2.80;;;2.60;;
7495;SDS011;3789;47.064;15.482;2023-07-31T13:04:44;3.22;;;2.92;;
7495;SDS011;3789;47.064;15.482;2023-07-31T13:07:14;3.05;;;2.53;;
7495;SDS011;3789;47.064;15.482;2023-07-31T13:09:50;2.70;;;2.50;;
7495;SDS011;3789;47.064;15.482;2023-07-31T13:12:26;3.00;;;2.75;;
7495;SDS011;3789;47.064;15.482;2023-07-31T13:14:56;3.05;;;2.78;;
7495;SDS011;3789;47.064;15.482;2023-07-31T13:17:26;3.58;;;3.28;;
7495;SDS011;3789;47.064;15.482;2023-07-31T13:19:56;3.30;;;2.83;;
7495;SDS011;3789;47.064;15.482;2023-07-31T13:22:30;3.75;;;2.80;;
7495;SDS011;3789;47.064;15.482;2023-07-31T13:24:59;4.20;;;2.90;;
7495;SDS011;3789;47.064;15.482;2023-07-31T13:27:41;3.58;;;2.53;;
7495;SDS011;3789;47.064;15.482;2023-07-31T13:30:17;2.65;;;2.45;;
7495;SDS011;3789;47.064;15.482;2023-07-31T13:32:44;2.83;;;2.50;;
7495;SDS011;3789;47.064;15.482;2023-07-31T13:35:13;3.00;;;2.70;;
7495;SDS011;3789;47.064;15.482;2023-07-31T13:37:41;5.30;;;2.92;;
7495;SDS011;3789;47.064;15.482;2023-07-31T13:40:18;3.10;;;2.80;;
7495;SDS011;3789;47.064;15.482;2023-07-31T13:42:49;2.90;;;2.70;;
7495;SDS011;3789;47.064;15.482;2023-07-31T13:45:23;3.88;;;2.72;;
7495;SDS011;3789;47.064;15.482;2023-07-31T13:47:51;3.03;;;2.72;;
7495;SDS011;3789;47.064;15.482;2023-07-31T13:50:21;2.97;;;2.70;;
7495;SDS011;3789;47.064;15.482;2023-07-31T13:52:53;3.42;;;2.50;;
7495;SDS011;3789;47.064;15.482;2023-07-31T13:55:22;3.28;;;2.85;;
7495;SDS011;3789;47.064;15.482;2023-07-31T13:57:52;3.85;;;2.70;;
7495;SDS011;3789;47.064;15.482;2023-07-31T14:00:30;2.92;;;2.58;;
7495;SDS011;3789;47.064;15.482;2023-07-31T14:03:00;2.97;;;2.60;;
7495;SDS011;3789;47.064;15.482;2023-07-31T14:05:40;3.20;;;2.90;;
7495;SDS011;3789;47.064;15.482;2023-07-31T14:08:11;4.00;;;2.70;;
7495;SDS011;3789;47.064;15.482;2023-07-31T14:10:39;3.00;;;2.70;;
7495;SDS011;3789;47.064;15.482;2023-07-31T14:13:07;2.70;;;2.50;;
7495;SDS011;3789;47.064;15.482;2023-07-31T14:15:45;3.67;;;2.67;;
7495;SDS011;3789;47.064;15.482;2023-07-31T14:18:14;3.30;;;3.00;;
7495;SDS011;3789;47.064;15.482;2023-07-31T14:20:52;3.75;;;3.03;;
7495;SDS011;3789;47.064;15.482;2023-07-31T14:23:42;3.05;;;2.75;;
7495;SDS011;3789;47.064;15.482;2023-07-31T14:26:12;3.08;;;2.63;;
7495;SDS011;3789;47.064;15.482;2023-07-31T14:28:44;2.78;;;2.58;;
7495;SDS011;3789;47.064;15.482;2023-07-31T14:31:17;2.80;;;2.60;;
7495;SDS011;3789;47.064;15.482;2023-07-31T14:33:50;2.75;;;2.50;;
7495;SDS011;3789;47.064;15.482;2023-07-31T14:36:27;2.92;;;2.63;;
7495;SDS011;3789;47.064;15.482;2023-07-31T14:38:56;2.58;;;2.38;;
7495;SDS011;3789;47.064;15.482;2023-07-31T14:41:25;3.00;;;2.80;;
7495;SDS011;3789;47.064;15.482;2023-07-31T14:43:54;3.03;;;2.60;;
7495;SDS011;3789;47.064;15.482;2023-07-31T14:46:24;3.83;;;2.72;;
7495;SDS011;3789;47.064;15.482;2023-07-31T14:48:58;2.95;;;2.70;;
7495;SDS011;3789;47.064;15.482;2023-07-31T14:51:29;3.78;;;3.20;;
7495;SDS011;3789;47.064;15.482;2023-07-31T14:53:59;3.15;;;2.85;;
7495;SDS011;3789;47.064;15.482;2023-07-31T14:56:29;3.55;;;2.63;;
7495;SDS011;3789;47.064;15.482;2023-07-31T14:59:00;2.65;;;2.45;;
7495;SDS011;3789;47.064;15.482;2023-07-31T15:01:32;2.80;;;2.60;;
7495;SDS011;3789;47.064;15.482;2023-07-31T15:04:01;5.10;;;3.00;;
7495;SDS011;3789;47.064;15.482;2023-07-31T15:06:32;3.05;;;2.58;;
7495;SDS011;3789;47.064;15.482;2023-07-31T15:09:00;5.03;;;2.78;;
7495;SDS011;3789;47.064;15.482;2023-07-31T15:11:32;3.20;;;2.90;;
7495;SDS011;3789;47.064;15.482;2023-07-31T15:14:02;2.80;;;2.60;;
7495;SDS011;3789;47.064;15.482;2023-07-31T15:16:44;2.80;;;2.60;;
7495;SDS011;3789;47.064;15.482;2023-07-31T15:19:14;2.97;;;2.67;;
7495;SDS011;3789;47.064;15.482;2023-07-31T15:21:51;2.78;;;2.58;;
7495;SDS011;3789;47.064;15.482;2023-07-31T15:24:21;3.30;;;3.00;;
7495;SDS011;3789;47.064;15.482;2023-07-31T15:26:51;3.13;;;2.83;;
7495;SDS011;3789;47.064;15.482;2023-07-31T15:29:22;3.30;;;2.88;;
7495;SDS011;3789;47.064;15.482;2023-07-31T15:31:59;6.65;;;3.22;;
7495;SDS011;3789;47.064;15.482;2023-07-31T15:34:34;3.30;;;2.90;;
7495;SDS011;3789;47.064;15.482;2023-07-31T15:37:04;4.90;;;3.20;;
7495;SDS011;3789;47.064;15.482;2023-07-31T15:39:36;4.00;;;3.08;;
7495;SDS011;3789;47.064;15.482;2023-07-31T15:42:06;3.15;;;2.85;;
7495;SDS011;3789;47.064;15.482;2023-07-31T15:44:38;4.28;;;2.53;;
7495;SDS011;3789;47.064;15.482;2023-07-31T15:47:12;3.10;;;2.80;;
7495;SDS011;3789;47.064;15.482;2023-07-31T15:49:42;3.17;;;2.88;;